Time;durP1;ratioP1;P1;durP2;ratioP2;P2;SDS_P1;SDS_P2;PMS_P1;PMS_P2;Temp;Humidity;BMP_temperature;BMP_pressure;BME280_temperature;BME280_humidity;BME280_pressure;Samples;Min_cycle;Max_cycle;Signal;HPM_P1;HPM_P2
2022/04/12 00:00:32;;;;;;;10.80;9.80;;;11.70;73.50;;;;;;5036032;28;20460;-63
2022/04/12 00:02:58;;;;;;;10.90;9.87;;;11.70;73.30;;;;;;5032435;28;20410;-63
2022/04/12 00:05:24;;;;;;;13.37;9.90;;;11.70;73.90;;;;;;5031488;28;20404;-63
2022/04/12 00:07:50;;;;;;;12.70;10.63;;;11.70;75.30;;;;;;5032324;28;20433;-63
2022/04/12 00:10:16;;;;;;;11.10;10.00;;;11.60;75.90;;;;;;5014759;28;20292;-63
2022/04/12 00:12:43;;;;;;;12.63;11.00;;;11.60;76.00;;;;;;5031829;28;20422;-63
2022/04/12 00:15:10;;;;;;;11.37;10.30;;;11.60;76.40;;;;;;5032081;28;20424;-63
2022/04/12 00:20:25;;;;;;;11.97;10.87;;;11.50;76.10;;;;;;5031310;28;20502;-69
2022/04/12 00:22:51;;;;;;;11.60;10.60;;;11.50;76.40;;;;;;5036517;28;20788;-63
2022/04/12 00:25:18;;;;;;;11.97;10.70;;;11.50;77.00;;;;;;5034127;28;20424;-63
2022/04/12 00:27:44;;;;;;;15.47;10.93;;;11.50;76.90;;;;;;5052083;28;20418;-63
2022/04/12 00:30:14;;;;;;;12.03;11.03;;;11.50;78.10;;;;;;5045262;28;20944;-63
2022/04/12 00:32:40;;;;;;;11.37;10.47;;;11.50;78.00;;;;;;5031270;28;20371;-63
2022/04/12 00:35:06;;;;;;;11.93;10.93;;;11.50;78.90;;;;;;5032018;28;20511;-63
2022/04/12 00:37:32;;;;;;;13.20;12.03;;;11.40;78.30;;;;;;5030852;28;20423;-63
2022/04/12 00:39:58;;;;;;;13.00;11.70;;;11.50;79.10;;;;;;5031444;28;20511;-63
2022/04/12 00:42:24;;;;;;;12.50;11.20;;;11.50;78.80;;;;;;5034927;28;20187;-64
2022/04/12 00:44:49;;;;;;;15.20;12.90;;;11.50;79.20;;;;;;5018193;28;20261;-63
2022/04/12 00:47:15;;;;;;;13.30;12.20;;;11.50;79.40;;;;;;5012209;28;20177;-63
2022/04/12 00:49:41;;;;;;;12.83;11.70;;;11.50;79.40;;;;;;5054517;28;20248;-63
2022/04/12 00:52:08;;;;;;;13.73;12.47;;;11.50;79.80;;;;;;5037949;28;20411;-63
2022/04/12 00:54:36;;;;;;;12.70;11.50;;;11.50;80.00;;;;;;5054382;28;20460;-63
2022/04/12 00:57:03;;;;;;;12.30;11.10;;;11.50;80.40;;;;;;5055765;28;20498;-63
2022/04/12 00:59:31;;;;;;;11.00;10.10;;;11.40;80.30;;;;;;5054733;28;20455;-63
2022/04/12 01:01:57;;;;;;;9.50;8.70;;;11.40;80.20;;;;;;5055265;28;20413;-63
2022/04/12 01:04:23;;;;;;;8.83;8.13;;;11.40;80.70;;;;;;5037318;28;20488;-69
2022/04/12 01:06:50;;;;;;;8.93;8.13;;;11.40;80.30;;;;;;5054965;28;20921;-63
2022/04/12 01:09:16;;;;;;;8.50;7.60;;;11.40;80.40;;;;;;5055716;28;20424;-63
2022/04/12 01:11:48;;;;;;;8.37;7.67;;;11.50;79.70;;;;;;5036662;28;20460;-63
2022/04/12 01:14:15;;;;;;;10.83;8.00;;;11.50;80.10;;;;;;5035564;28;20407;-63
2022/04/12 01:16:40;;;;;;;9.23;8.10;;;11.50;79.90;;;;;;5016835;28;20420;-63
2022/04/12 01:19:06;;;;;;;9.43;8.53;;;11.50;78.70;;;;;;5034991;28;20480;-63
2022/04/12 01:21:38;;;;;;;9.87;8.47;;;11.50;79.80;;;;;;5034077;28;20652;-63
2022/04/12 01:24:05;;;;;;;9.20;7.50;;;11.50;79.70;;;;;;5035003;28;20181;-63
2022/04/12 01:26:32;;;;;;;8.63;7.83;;;11.50;81.00;;;;;;5016508;28;20472;-63
2022/04/12 01:28:59;;;;;;;9.30;8.50;;;11.40;81.60;;;;;;5035091;28;20746;-63
2022/04/12 01:31:26;;;;;;;8.90;8.10;;;11.60;81.50;;;;;;5037971;28;20949;-69
2022/04/12 01:33:52;;;;;;;8.60;7.70;;;11.60;81.70;;;;;;5034806;28;20884;-63
2022/04/12 01:36:19;;;;;;;8.23;7.50;;;11.50;82.00;;;;;;5043175;28;20419;-63
2022/04/12 01:38:45;;;;;;;8.13;7.20;;;11.50;80.80;;;;;;5054023;28;20407;-63
2022/04/12 01:41:10;;;;;;;7.23;6.63;;;11.60;80.70;;;;;;5053381;28;20429;-63
2022/04/12 01:43:36;;;;;;;8.77;7.43;;;11.60;82.30;;;;;;5053755;28;20414;-63
2022/04/12 01:46:02;;;;;;;8.37;7.57;;;11.60;82.00;;;;;;5037283;28;20416;-63
2022/04/12 01:48:28;;;;;;;8.57;7.77;;;11.60;81.40;;;;;;5054051;28;20716;-64
2022/04/12 01:50:54;;;;;;;8.60;7.80;;;11.60;81.20;;;;;;5053779;28;20183;-63
2022/04/12 01:53:20;;;;;;;8.90;8.10;;;11.60;81.20;;;;;;5040363;28;20176;-63
2022/04/12 01:55:46;;;;;;;10.27;9.27;;;11.50;80.80;;;;;;5015877;28;20177;-63
2022/04/12 01:58:11;;;;;;;10.50;9.50;;;11.60;81.20;;;;;;5034589;28;20471;-63
2022/04/12 02:00:37;;;;;;;10.30;9.30;;;11.50;82.00;;;;;;5033423;28;20216;-65
2022/04/12 02:03:04;;;;;;;11.00;9.40;;;11.50;81.30;;;;;;5053250;28;20191;-64
2022/04/12 02:05:30;;;;;;;10.90;9.87;;;11.50;81.20;;;;;;5053958;28;20841;-65
2022/04/12 02:07:55;;;;;;;12.33;10.70;;;11.50;81.90;;;;;;5054495;28;20482;-64
2022/04/12 02:10:22;;;;;;;12.30;11.10;;;11.60;81.30;;;;;;5054286;28;20408;-64
2022/04/12 02:12:49;;;;;;;13.43;11.23;;;11.60;82.10;;;;;;5053283;28;21347;-65
2022/04/12 02:15:15;;;;;;;12.97;11.67;;;11.50;82.20;;;;;;5053897;28;20424;-64
2022/04/12 02:17:41;;;;;;;12.20;10.90;;;11.50;82.00;;;;;;5053369;28;20470;-64
2022/04/12 02:20:07;;;;;;;14.23;12.73;;;11.60;82.40;;;;;;5044412;28;20490;-64
2022/04/12 02:22:33;;;;;;;15.03;10.80;;;11.50;82.40;;;;;;5073569;28;20494;-64
2022/04/12 02:24:59;;;;;;;12.50;11.40;;;11.50;82.80;;;;;;5073793;28;20503;-64
2022/04/12 02:27:24;;;;;;;13.03;11.73;;;11.50;82.60;;;;;;5068860;28;20412;-67
2022/04/12 02:29:50;;;;;;;11.83;10.63;;;11.50;82.40;;;;;;5053598;28;20236;-64
2022/04/12 02:32:16;;;;;;;11.37;10.37;;;11.40;83.30;;;;;;5054249;28;20189;-64
2022/04/12 02:34:41;;;;;;;12.70;11.27;;;11.40;83.70;;;;;;5052862;28;20277;-64
2022/04/12 02:37:07;;;;;;;10.60;9.70;;;11.40;84.30;;;;;;5054153;28;20186;-64
2022/04/12 02:39:33;;;;;;;10.43;9.23;;;11.30;83.90;;;;;;5051648;28;20204;-64
2022/04/12 02:41:59;;;;;;;11.40;10.30;;;11.30;84.30;;;;;;5053477;28;20186;-64
2022/04/12 02:44:25;;;;;;;11.67;10.63;;;11.30;84.70;;;;;;5053586;28;20174;-64
2022/04/12 02:46:51;;;;;;;10.13;9.03;;;11.30;85.10;;;;;;5052995;28;20927;-64
2022/04/12 02:49:16;;;;;;;11.03;8.90;;;11.30;84.60;;;;;;5060649;28;20246;-64
2022/04/12 02:51:42;;;;;;;10.00;9.10;;;11.30;84.40;;;;;;5065060;28;20177;-64
2022/04/12 02:54:08;;;;;;;11.90;9.60;;;11.30;83.90;;;;;;5073611;28;20172;-64
2022/04/12 02:56:33;;;;;;;10.90;8.80;;;11.30;83.90;;;;;;5059720;28;20260;-64
2022/04/12 02:58:59;;;;;;;8.60;7.70;;;11.30;84.50;;;;;;5053301;28;20174;-66
2022/04/12 03:01:25;;;;;;;8.30;7.50;;;11.00;84.10;;;;;;5064170;28;20212;-66
2022/04/12 03:03:51;;;;;;;9.13;8.27;;;11.30;84.90;;;;;;5071677;28;20177;-66
2022/04/12 03:06:17;;;;;;;9.43;8.20;;;11.30;84.50;;;;;;5063803;28;20420;-66
2022/04/12 03:08:42;;;;;;;10.63;9.43;;;11.30;84.00;;;;;;5064229;28;20187;-66
2022/04/12 03:11:08;;;;;;;8.67;7.87;;;11.40;82.30;;;;;;5062585;28;20184;-68
2022/04/12 03:13:34;;;;;;;9.67;8.67;;;11.40;83.40;;;;;;5063316;28;20183;-66
2022/04/12 03:15:59;;;;;;;8.53;7.73;;;11.40;83.30;;;;;;5071095;28;20200;-66
2022/04/12 03:18:25;;;;;;;9.37;7.73;;;11.40;83.30;;;;;;5071446;28;20580;-66
2022/04/12 03:20:51;;;;;;;8.87;7.97;;;11.40;83.50;;;;;;5052120;28;20367;-66
2022/04/12 03:23:18;;;;;;;9.43;8.30;;;11.40;83.40;;;;;;5053029;28;20920;-66
2022/04/12 03:25:44;;;;;;;9.03;8.13;;;11.40;83.80;;;;;;5017712;28;20176;-66
2022/04/12 03:28:10;;;;;;;8.00;7.23;;;11.40;84.90;;;;;;5015170;28;20476;-66
2022/04/12 03:30:36;;;;;;;7.60;6.87;;;11.50;84.20;;;;;;5032001;28;20773;-66
2022/04/12 03:33:02;;;;;;;8.50;7.67;;;11.50;84.30;;;;;;4998792;28;20194;-66
2022/04/12 03:35:28;;;;;;;7.07;6.57;;;11.40;84.30;;;;;;5032874;28;20398;-65
2022/04/12 03:38:00;;;;;;;9.53;7.83;;;11.50;85.00;;;;;;5032304;28;20439;-65
2022/04/12 03:40:27;;;;;;;8.20;7.40;;;11.50;85.20;;;;;;5032811;28;20489;-65
2022/04/12 03:42:53;;;;;;;8.30;7.60;;;11.50;85.20;;;;;;5031899;28;20418;-64
2022/04/12 03:45:19;;;;;;;8.90;8.03;;;11.50;85.00;;;;;;5050217;28;20434;-64
2022/04/12 03:47:45;;;;;;;8.97;8.20;;;11.50;85.00;;;;;;5051714;28;20908;-64
2022/04/12 03:50:11;;;;;;;10.07;9.10;;;11.50;84.40;;;;;;5052583;28;20491;-65
2022/04/12 03:52:36;;;;;;;9.53;8.70;;;11.50;83.80;;;;;;5051609;28;20631;-65
2022/04/12 03:55:04;;;;;;;11.80;8.67;;;11.60;84.10;;;;;;5050755;28;20244;-65
2022/04/12 03:57:32;;;;;;;8.93;8.17;;;11.10;83.40;;;;;;5052514;28;20170;-71
2022/04/12 03:59:58;;;;;;;9.10;8.20;;;11.60;84.60;;;;;;5051659;28;20461;-65
2022/04/12 04:02:24;;;;;;;10.10;8.40;;;11.50;84.70;;;;;;5052278;28;20906;-65
2022/04/12 04:04:49;;;;;;;9.33;8.43;;;11.60;85.00;;;;;;5050924;28;20181;-65
2022/04/12 04:07:15;;;;;;;8.87;8.07;;;11.60;84.50;;;;;;5034288;28;20170;-64
2022/04/12 04:09:41;;;;;;;9.03;8.27;;;11.70;84.50;;;;;;5051124;28;20183;-65
2022/04/12 04:12:07;;;;;;;9.33;8.43;;;11.50;84.20;;;;;;5052119;28;20641;-65
2022/04/12 04:14:33;;;;;;;8.60;7.80;;;11.50;84.70;;;;;;5051629;28;20183;-72
2022/04/12 04:17:02;;;;;;;8.63;7.70;;;11.10;84.30;;;;;;5051854;28;20467;-64
2022/04/12 04:19:28;;;;;;;9.17;7.60;;;11.50;84.30;;;;;;5043600;28;20811;-64
2022/04/12 04:21:55;;;;;;;9.20;8.23;;;11.50;83.60;;;;;;5031112;28;20493;-65
2022/04/12 04:24:22;;;;;;;10.10;9.00;;;11.50;83.30;;;;;;5032188;28;20174;-64
2022/04/12 04:26:49;;;;;;;7.83;7.10;;;11.50;83.90;;;;;;5031401;28;20943;-65
2022/04/12 04:29:15;;;;;;;8.57;7.67;;;11.60;84.10;;;;;;5032100;28;20813;-64
2022/04/12 04:31:40;;;;;;;9.70;7.10;;;11.60;84.80;;;;;;5031489;28;20422;-65
2022/04/12 04:34:06;;;;;;;8.20;7.47;;;11.60;82.30;;;;;;5014154;28;20191;-64
2022/04/12 04:36:32;;;;;;;8.73;7.93;;;11.60;82.00;;;;;;5031974;28;20185;-64
2022/04/12 04:38:57;;;;;;;9.70;7.30;;;11.60;80.80;;;;;;5032213;28;20665;-64
2022/04/12 04:41:23;;;;;;;9.13;6.93;;;11.70;82.60;;;;;;5032066;28;20178;-65
2022/04/12 04:43:49;;;;;;;8.70;7.40;;;11.70;82.10;;;;;;5030957;28;20507;-65
2022/04/12 04:46:15;;;;;;;7.33;6.60;;;11.70;82.60;;;;;;5035850;28;20183;-66
2022/04/12 04:48:41;;;;;;;7.57;6.97;;;11.70;81.50;;;;;;5036207;28;20545;-65
2022/04/12 04:51:08;;;;;;;7.47;6.77;;;11.80;81.90;;;;;;5049785;28;20176;-64
2022/04/12 04:53:36;;;;;;;8.07;7.27;;;11.80;82.20;;;;;;5051557;28;20774;-71
2022/04/12 04:56:03;;;;;;;8.60;7.07;;;11.80;81.70;;;;;;5050479;28;20411;-64
2022/04/12 04:58:29;;;;;;;8.30;7.50;;;11.90;80.60;;;;;;5034298;28;20491;-64
2022/04/12 05:00:54;;;;;;;6.20;5.60;;;11.90;80.20;;;;;;5046920;28;20547;-64
2022/04/12 05:03:20;;;;;;;5.80;5.33;;;11.90;76.20;;;;;;5051059;28;20212;-65
2022/04/12 05:05:46;;;;;;;9.13;8.27;;;11.90;75.60;;;;;;5050813;28;20177;-64
2022/04/12 05:08:11;;;;;;;14.40;9.20;;;12.00;76.10;;;;;;5051929;28;20192;-65
2022/04/12 05:10:37;;;;;;;7.40;6.70;;;12.10;76.10;;;;;;5046066;28;20185;-70
2022/04/12 05:13:03;;;;;;;9.63;8.57;;;12.10;76.40;;;;;;5050941;28;20513;-65
2022/04/12 05:15:30;;;;;;;11.03;8.20;;;12.20;75.80;;;;;;5051647;28;20179;-65
2022/04/12 05:17:56;;;;;;;6.97;6.27;;;12.40;75.60;;;;;;5049313;28;20511;-65
2022/04/12 05:20:24;;;;;;;6.27;5.67;;;12.40;75.10;;;;;;5037984;28;20479;-65
2022/04/12 05:22:51;;;;;;;6.67;6.03;;;12.50;76.30;;;;;;5030767;28;20402;-65
2022/04/12 05:25:17;;;;;;;6.00;5.47;;;12.60;77.20;;;;;;5030798;28;20514;-65
2022/04/12 05:27:43;;;;;;;6.47;5.80;;;12.70;78.80;;;;;;5034065;28;20434;-66
2022/04/12 05:30:10;;;;;;;6.63;6.13;;;12.70;77.30;;;;;;5020892;28;20926;-66
2022/04/12 05:32:37;;;;;;;7.90;6.10;;;12.70;80.20;;;;;;5037604;28;20421;-71
2022/04/12 05:35:04;;;;;;;6.50;6.10;;;12.70;80.90;;;;;;5035617;28;20467;-65
2022/04/12 05:37:31;;;;;;;5.20;4.80;;;12.70;81.50;;;;;;5035363;28;20459;-65
2022/04/12 05:39:57;;;;;;;8.23;6.27;;;12.60;81.40;;;;;;5034609;28;20559;-65
2022/04/12 05:42:26;;;;;;;6.00;5.50;;;12.60;82.60;;;;;;5035311;28;20413;-65
2022/04/12 05:44:51;;;;;;;6.40;5.40;;;12.50;82.60;;;;;;5034604;28;20436;-65
2022/04/12 05:47:17;;;;;;;7.33;6.63;;;12.40;82.10;;;;;;5052688;28;20428;-65
2022/04/12 05:49:43;;;;;;;5.00;4.60;;;12.40;83.70;;;;;;5046744;28;20190;-66
2022/04/12 05:52:09;;;;;;;6.20;5.70;;;12.40;84.50;;;;;;5046155;28;20185;-65
2022/04/12 05:54:34;;;;;;;6.43;5.93;;;12.40;83.30;;;;;;5042075;28;20207;-65
2022/04/12 05:57:00;;;;;;;5.73;5.20;;;12.30;83.60;;;;;;5041913;28;20508;-65
2022/04/12 05:59:26;;;;;;;5.33;4.83;;;12.30;85.00;;;;;;5054404;28;20958;-65
2022/04/12 06:01:52;;;;;;;5.30;4.90;;;12.40;83.70;;;;;;5040348;28;20443;-65
2022/04/12 06:04:17;;;;;;;5.50;4.93;;;12.20;83.80;;;;;;5034379;28;20263;-65
2022/04/12 06:06:43;;;;;;;6.13;5.63;;;12.20;83.80;;;;;;5028952;28;20692;-66
2022/04/12 06:09:09;;;;;;;6.03;5.10;;;12.20;83.00;;;;;;5016043;28;20213;-65
2022/04/12 06:11:35;;;;;;;6.17;5.57;;;12.30;83.10;;;;;;5034497;28;20182;-65
2022/04/12 06:14:01;;;;;;;5.90;5.30;;;12.30;83.10;;;;;;5033338;28;20432;-65
2022/04/12 06:16:26;;;;;;;7.20;6.57;;;12.40;82.50;;;;;;5034045;28;20179;-65
2022/04/12 06:18:53;;;;;;;7.83;6.33;;;12.50;82.10;;;;;;5032946;28;20311;-65
2022/04/12 06:21:19;;;;;;;8.13;6.57;;;12.50;83.60;;;;;;5034219;28;20588;-65
2022/04/12 06:23:45;;;;;;;8.97;7.07;;;12.60;83.10;;;;;;5033759;28;20506;-66
2022/04/12 06:26:11;;;;;;;7.60;6.40;;;12.70;82.60;;;;;;5049108;28;20912;-65
2022/04/12 06:28:39;;;;;;;8.93;8.03;;;12.70;84.40;;;;;;5043256;28;20419;-65
2022/04/12 06:31:05;;;;;;;6.23;5.57;;;12.80;84.40;;;;;;5051152;28;20533;-65
2022/04/12 06:33:31;;;;;;;8.10;7.30;;;12.90;83.60;;;;;;5054232;28;20440;-66
2022/04/12 06:35:57;;;;;;;9.37;6.70;;;12.90;83.70;;;;;;5053319;28;20908;-66
2022/04/12 06:38:23;;;;;;;9.83;6.83;;;13.00;82.90;;;;;;5043778;28;20539;-66
2022/04/12 06:40:49;;;;;;;6.50;5.80;;;13.10;82.00;;;;;;5023924;28;20657;-66
2022/04/12 06:43:16;;;;;;;6.60;6.10;;;13.10;82.30;;;;;;5034302;28;20175;-66
2022/04/12 06:45:42;;;;;;;5.40;5.00;;;13.20;81.60;;;;;;5033625;28;20876;-66
2022/04/12 06:48:08;;;;;;;7.20;5.50;;;13.30;80.70;;;;;;5043798;28;20419;-66
2022/04/12 06:50:34;;;;;;;5.80;5.30;;;13.30;78.30;;;;;;5053488;28;20510;-66
2022/04/12 06:53:03;;;;;;;6.07;5.57;;;13.50;77.20;;;;;;5053104;28;20418;-66
2022/04/12 06:55:29;;;;;;;5.70;5.20;;;13.50;76.80;;;;;;5053974;28;20413;-66
2022/04/12 06:57:55;;;;;;;6.10;5.60;;;13.60;75.20;;;;;;5053269;28;20490;-66
2022/04/12 07:00:21;;;;;;;4.70;4.40;;;13.70;74.10;;;;;;5040779;28;20860;-66
2022/04/12 07:02:47;;;;;;;5.93;5.10;;;13.70;73.70;;;;;;5034814;28;20425;-66
2022/04/12 07:05:13;;;;;;;7.83;4.60;;;13.80;73.00;;;;;;5025442;28;20420;-66
2022/04/12 07:07:40;;;;;;;5.53;4.60;;;13.90;72.50;;;;;;5039552;28;20954;-66
2022/04/12 07:10:11;;;;;;;5.30;4.90;;;13.90;71.80;;;;;;5046057;28;20424;-66
2022/04/12 07:12:38;;;;;;;5.17;4.63;;;14.00;72.80;;;;;;5046192;28;20419;-66
2022/04/12 07:15:04;;;;;;;7.63;5.50;;;14.10;72.00;;;;;;5032605;28;20912;-66
2022/04/12 07:17:30;;;;;;;6.67;6.07;;;14.10;71.70;;;;;;5034725;28;20417;-66
2022/04/12 07:19:56;;;;;;;5.97;5.47;;;14.20;70.70;;;;;;5033353;28;20535;-66
2022/04/12 07:22:22;;;;;;;5.70;5.20;;;14.20;70.60;;;;;;5019702;28;20425;-66
2022/04/12 07:24:48;;;;;;;5.87;5.40;;;14.30;70.00;;;;;;5034873;28;20513;-66
2022/04/12 07:27:14;;;;;;;4.97;4.57;;;14.40;70.20;;;;;;5033844;28;20182;-66
2022/04/12 07:29:39;;;;;;;5.30;4.87;;;14.50;69.30;;;;;;5041004;28;20182;-66
2022/04/12 07:32:06;;;;;;;5.63;5.20;;;14.60;68.80;;;;;;5031912;28;20423;-66
2022/04/12 07:34:31;;;;;;;5.43;4.93;;;14.60;68.40;;;;;;5033235;28;20320;-66
2022/04/12 07:36:57;;;;;;;4.60;4.20;;;14.60;67.40;;;;;;5033602;28;20565;-65
2022/04/12 07:39:24;;;;;;;4.57;4.17;;;14.70;67.60;;;;;;5039866;28;20301;-66
2022/04/12 07:41:51;;;;;;;6.00;4.10;;;14.80;67.80;;;;;;5046127;28;20815;-66
2022/04/12 07:44:19;;;;;;;4.50;4.10;;;14.90;67.70;;;;;;5033044;28;20418;-66
2022/04/12 07:46:45;;;;;;;5.10;3.93;;;15.00;69.20;;;;;;5047760;28;20413;-68
2022/04/12 07:49:11;;;;;;;4.87;4.47;;;15.10;68.40;;;;;;5044140;28;20427;-66
2022/04/12 07:51:37;;;;;;;5.80;5.10;;;15.20;66.30;;;;;;5033964;28;20422;-66
2022/04/12 07:54:04;;;;;;;4.23;3.93;;;15.30;66.20;;;;;;5041194;28;20455;-66
2022/04/12 07:56:30;;;;;;;4.50;4.10;;;15.30;65.90;;;;;;5052517;28;20403;-66
2022/04/12 07:58:56;;;;;;;4.50;4.03;;;15.50;66.30;;;;;;5044465;28;20817;-66
2022/04/12 08:01:22;;;;;;;4.73;4.33;;;15.60;66.60;;;;;;5034465;28;20428;-66
2022/04/12 08:03:48;;;;;;;4.00;3.70;;;15.80;66.80;;;;;;5047266;28;20179;-66
2022/04/12 08:06:14;;;;;;;3.80;3.53;;;15.90;64.30;;;;;;5049180;28;20211;-66
2022/04/12 08:08:39;;;;;;;3.77;3.47;;;16.00;64.00;;;;;;5046816;28;20185;-65
2022/04/12 08:11:06;;;;;;;3.90;3.60;;;16.10;63.50;;;;;;5051095;28;20423;-66
2022/04/12 08:13:34;;;;;;;8.27;7.47;;;16.20;63.50;;;;;;5052164;28;20408;-66
2022/04/12 08:16:00;;;;;;;3.70;3.40;;;16.40;65.30;;;;;;5051880;28;20457;-66
2022/04/12 08:18:26;;;;;;;4.13;3.83;;;16.50;63.50;;;;;;5052490;28;20915;-65
2022/04/12 08:20:54;;;;;;;3.70;3.40;;;16.60;64.00;;;;;;5051566;28;20955;-66
2022/04/12 08:23:23;;;;;;;4.10;3.40;;;16.80;64.50;;;;;;5052425;28;20467;-66
2022/04/12 08:25:50;;;;;;;3.73;3.43;;;16.80;63.00;;;;;;5034357;28;20416;-66
2022/04/12 08:28:16;;;;;;;3.50;3.20;;;16.90;62.20;;;;;;5052384;28;20412;-66
2022/04/12 08:30:42;;;;;;;3.27;3.07;;;17.10;63.20;;;;;;5052387;28;20435;-66
2022/04/12 08:33:08;;;;;;;3.17;2.97;;;17.20;62.70;;;;;;5051763;28;20420;-65
2022/04/12 08:35:33;;;;;;;3.27;3.07;;;17.30;61.20;;;;;;5052653;28;20174;-65
2022/04/12 08:37:59;;;;;;;3.30;3.10;;;17.40;62.60;;;;;;5033894;28;20634;-66
2022/04/12 08:40:25;;;;;;;3.70;2.60;;;17.50;61.10;;;;;;5052348;28;20197;-66
2022/04/12 08:42:52;;;;;;;3.20;3.10;;;17.50;61.40;;;;;;5051716;28;20185;-66
2022/04/12 08:45:18;;;;;;;6.60;5.90;;;17.60;60.90;;;;;;5052495;28;20634;-66
2022/04/12 08:47:44;;;;;;;12.63;10.77;;;17.70;59.60;;;;;;5052223;28;20404;-65
2022/04/12 08:50:10;;;;;;;3.53;3.30;;;17.70;59.50;;;;;;5051243;28;20189;-65
2022/04/12 08:52:36;;;;;;;3.43;3.20;;;17.70;60.20;;;;;;5052231;28;20257;-65
2022/04/12 08:55:03;;;;;;;3.63;3.30;;;17.90;62.10;;;;;;5051527;28;20407;-66
2022/04/12 08:57:29;;;;;;;3.80;3.60;;;17.90;58.80;;;;;;5052202;28;20447;-65
2022/04/12 08:59:55;;;;;;;3.50;3.30;;;18.00;62.30;;;;;;5051440;28;20932;-66
2022/04/12 09:02:22;;;;;;;3.83;3.63;;;18.10;63.70;;;;;;5035977;28;20177;-66
2022/04/12 09:04:48;;;;;;;3.37;3.17;;;18.30;59.60;;;;;;5055805;28;20474;-75
2022/04/12 09:07:14;;;;;;;4.00;3.60;;;18.30;59.20;;;;;;5055914;28;20444;-66
2022/04/12 09:09:42;;;;;;;3.43;3.23;;;18.40;58.20;;;;;;5055926;28;20931;-65
2022/04/12 09:12:13;;;;;;;4.20;3.17;;;18.50;59.20;;;;;;5055284;28;20177;-66
2022/04/12 09:14:42;;;;;;;3.60;3.30;;;18.50;57.90;;;;;;5038199;28;20466;-66
2022/04/12 09:17:14;;;;;;;3.10;2.90;;;18.60;58.50;;;;;;5055432;28;20511;-66
2022/04/12 09:19:46;;;;;;;3.50;3.30;;;18.70;59.60;;;;;;5055707;28;20472;-66
2022/04/12 09:22:18;;;;;;;5.10;4.73;;;18.90;58.00;;;;;;5055282;28;20427;-66
2022/04/12 09:24:45;;;;;;;3.17;2.97;;;19.10;57.80;;;;;;5055820;28;20448;-66
2022/04/12 09:27:13;;;;;;;3.17;2.93;;;19.30;60.40;;;;;;5054951;28;20404;-66
2022/04/12 09:29:50;;;;;;;2.70;2.50;;;19.50;59.50;;;;;;5055476;28;20419;-66
2022/04/12 09:32:23;;;;;;;3.40;3.20;;;19.80;57.20;;;;;;5055731;28;20562;-66
2022/04/12 09:34:51;;;;;;;3.20;3.00;;;19.90;56.60;;;;;;5055216;28;20400;-66
2022/04/12 09:37:21;;;;;;;2.97;2.77;;;19.90;56.30;;;;;;5055397;28;20761;-66
2022/04/12 09:39:58;;;;;;;3.30;3.10;;;19.90;56.60;;;;;;5055280;28;20456;-65
2022/04/12 09:42:42;;;;;;;3.60;3.30;;;20.10;56.30;;;;;;5055293;28;20461;-66
2022/04/12 09:45:10;;;;;;;3.40;3.20;;;20.20;58.40;;;;;;5054603;28;20407;-66
2022/04/12 09:47:36;;;;;;;4.90;4.50;;;20.40;57.00;;;;;;5037268;28;20419;-66
2022/04/12 09:50:03;;;;;;;3.30;3.10;;;20.50;55.40;;;;;;5054664;28;20421;-66
2022/04/12 09:52:29;;;;;;;3.53;3.33;;;20.70;56.20;;;;;;5055003;28;20416;-66
2022/04/12 09:54:56;;;;;;;2.73;2.63;;;20.90;55.50;;;;;;5054485;28;20493;-66
2022/04/12 09:57:23;;;;;;;2.50;2.30;;;21.00;52.90;;;;;;5037132;28;20469;-66
2022/04/12 09:59:53;;;;;;;2.73;2.53;;;20.90;52.40;;;;;;5054983;28;20509;-66
2022/04/12 10:02:19;;;;;;;3.57;3.30;;;21.00;54.00;;;;;;5054937;28;20409;-65
2022/04/12 10:04:46;;;;;;;3.50;3.20;;;21.10;53.30;;;;;;5054858;28;20409;-65
2022/04/12 10:07:17;;;;;;;3.20;3.10;;;21.30;53.70;;;;;;5053903;28;20747;-66
2022/04/12 10:09:43;;;;;;;2.90;2.70;;;21.40;53.50;;;;;;5037128;28;20392;-66
2022/04/12 10:12:09;;;;;;;2.60;2.50;;;21.50;54.10;;;;;;5053905;28;20416;-66
2022/04/12 10:14:35;;;;;;;3.60;3.10;;;21.60;52.60;;;;;;5036794;28;20761;-66
2022/04/12 10:17:02;;;;;;;2.70;2.50;;;21.80;52.80;;;;;;5054013;28;20462;-66
2022/04/12 10:19:31;;;;;;;2.10;2.00;;;21.70;51.00;;;;;;5051208;28;21057;-66
2022/04/12 10:21:57;;;;;;;2.73;2.50;;;21.90;52.10;;;;;;5073656;28;20758;-66
2022/04/12 10:24:27;;;;;;;1.90;1.80;;;22.00;50.90;;;;;;5074421;28;20407;-66
2022/04/12 10:26:55;;;;;;;2.10;1.90;;;22.30;53.00;;;;;;5074337;28;20184;-66
2022/04/12 10:29:21;;;;;;;2.70;2.50;;;22.30;51.40;;;;;;5074649;28;20412;-66
2022/04/12 10:32:01;;;;;;;2.60;2.50;;;22.50;52.00;;;;;;5074321;28;20410;-66
2022/04/12 10:34:27;;;;;;;3.00;2.80;;;22.70;49.60;;;;;;5074467;28;20197;-66
2022/04/12 10:37:04;;;;;;;2.60;2.40;;;22.90;50.20;;;;;;5074299;28;20443;-66
2022/04/12 10:39:42;;;;;;;3.60;3.40;;;23.10;49.90;;;;;;5074358;28;20239;-66
2022/04/12 10:42:11;;;;;;;2.30;2.10;;;23.30;48.20;;;;;;5073628;28;20400;-66
2022/04/12 10:44:43;;;;;;;3.07;2.77;;;23.30;47.70;;;;;;5074154;28;20416;-66
2022/04/12 10:47:24;;;;;;;5.37;2.70;;;23.30;47.70;;;;;;5073510;28;20395;-66
2022/04/12 10:49:55;;;;;;;3.03;2.50;;;23.30;47.70;;;;;;5074179;28;20518;-66
2022/04/12 10:52:35;;;;;;;3.30;3.10;;;23.50;49.80;;;;;;5073949;28;20489;-66
2022/04/12 10:55:04;;;;;;;4.00;2.80;;;23.60;48.80;;;;;;5073388;28;20399;-66
2022/04/12 10:57:30;;;;;;;3.50;3.20;;;23.50;47.30;;;;;;5072564;28;20408;-66
2022/04/12 11:00:24;;;;;;;3.60;3.03;;;23.50;47.30;;;;;;5073242;28;20954;-74
2022/04/12 11:02:56;;;;;;;2.57;2.47;;;23.30;47.10;;;;;;5073536;28;20211;-66
2022/04/12 11:05:45;;;;;;;2.00;1.90;;;23.20;48.30;;;;;;5073407;28;20912;-66
2022/04/12 11:08:13;;;;;;;2.93;2.73;;;23.30;48.30;;;;;;5062562;28;20458;-66
2022/04/12 11:10:40;;;;;;;2.80;2.43;;;23.60;49.20;;;;;;5073599;28;20407;-66
2022/04/12 11:13:10;;;;;;;2.83;2.63;;;23.80;48.50;;;;;;5073017;28;20457;-66
2022/04/12 11:15:38;;;;;;;2.53;2.43;;;23.90;47.20;;;;;;5073557;28;20399;-66
2022/04/12 11:18:04;;;;;;;2.97;2.77;;;23.80;46.30;;;;;;5072818;28;20403;-66
2022/04/12 11:20:31;;;;;;;3.00;2.73;;;23.80;47.20;;;;;;5055766;28;20478;-66
2022/04/12 11:22:59;;;;;;;2.70;2.60;;;23.80;47.20;;;;;;5053214;28;20189;-73
2022/04/12 11:25:26;;;;;;;2.93;2.83;;;23.70;46.20;;;;;;5034288;28;20451;-66
2022/04/12 11:28:01;;;;;;;3.27;2.97;;;23.80;47.40;;;;;;5053052;28;20431;-66
2022/04/12 11:30:27;;;;;;;2.40;2.20;;;23.80;47.70;;;;;;5053184;28;20415;-66
2022/04/12 11:32:55;;;;;;;4.80;2.67;;;23.90;48.90;;;;;;5053104;28;20482;-66
2022/04/12 11:35:24;;;;;;;2.70;2.40;;;24.10;48.40;;;;;;5052763;28;20405;-66
2022/04/12 11:37:50;;;;;;;2.77;2.53;;;24.10;45.90;;;;;;5053110;28;20927;-66
2022/04/12 11:40:16;;;;;;;3.20;2.90;;;24.20;46.80;;;;;;5052201;28;20987;-66
2022/04/12 11:42:43;;;;;;;3.03;2.73;;;24.20;46.10;;;;;;5052969;28;20499;-66
2022/04/12 11:45:13;;;;;;;2.80;2.70;;;24.20;47.40;;;;;;5052416;28;20454;-66
2022/04/12 11:47:43;;;;;;;2.83;2.70;;;24.10;46.10;;;;;;5052710;28;20486;-66
2022/04/12 11:50:17;;;;;;;3.03;2.90;;;24.10;46.50;;;;;;5052448;28;20443;-66
2022/04/12 11:52:44;;;;;;;2.30;2.20;;;24.10;46.60;;;;;;5052578;28;20418;-66
2022/04/12 11:55:11;;;;;;;2.67;2.50;;;24.20;46.40;;;;;;5052156;28;20477;-65
2022/04/12 11:57:37;;;;;;;2.10;2.00;;;24.00;44.90;;;;;;5052571;28;20413;-65
2022/04/12 12:00:04;;;;;;;2.43;2.33;;;23.90;45.40;;;;;;5052118;28;20456;-66
2022/04/12 12:02:32;;;;;;;3.43;3.33;;;23.80;45.80;;;;;;5052762;28;20743;-66
2022/04/12 12:05:00;;;;;;;2.70;2.60;;;23.80;46.10;;;;;;5052701;28;20400;-66
2022/04/12 12:07:27;;;;;;;3.30;3.10;;;23.90;46.50;;;;;;5052633;28;20420;-65
2022/04/12 12:10:00;;;;;;;3.63;3.27;;;24.00;45.20;;;;;;5052598;28;20397;-66
2022/04/12 12:12:37;;;;;;;3.23;3.03;;;24.20;45.80;;;;;;5052565;28;20415;-66
2022/04/12 12:15:18;;;;;;;4.27;3.87;;;24.20;44.90;;;;;;5051952;28;20411;-66
2022/04/12 12:17:45;;;;;;;2.57;2.47;;;24.30;45.00;;;;;;5052557;28;20491;-66
2022/04/12 12:20:12;;;;;;;3.30;3.20;;;24.20;45.10;;;;;;5051392;28;20498;-66
2022/04/12 12:22:40;;;;;;;2.90;2.60;;;24.10;43.60;;;;;;5052185;28;20473;-66
2022/04/12 12:25:07;;;;;;;2.60;2.40;;;23.90;44.60;;;;;;5052175;28;20762;-65
2022/04/12 12:27:38;;;;;;;3.47;3.27;;;24.00;44.10;;;;;;5052419;28;20408;-66
2022/04/12 12:30:08;;;;;;;3.23;3.03;;;24.10;45.60;;;;;;5051790;28;20397;-65
2022/04/12 12:32:36;;;;;;;5.07;3.10;;;24.10;44.40;;;;;;5051667;28;20442;-65
2022/04/12 12:35:05;;;;;;;3.30;3.03;;;24.00;43.80;;;;;;5051433;28;20416;-68
2022/04/12 12:37:30;;;;;;;3.00;2.80;;;24.10;45.70;;;;;;5056780;28;20434;-66
2022/04/12 12:39:56;;;;;;;3.07;2.93;;;24.20;45.60;;;;;;5056516;28;20935;-66
2022/04/12 12:42:22;;;;;;;3.10;2.90;;;24.20;44.60;;;;;;5055863;28;20185;-66
2022/04/12 12:44:48;;;;;;;3.17;2.90;;;24.10;44.50;;;;;;5056379;28;20181;-65